sensor_id;sensor_type;location;lat;lon;timestamp;pressure;altitude;pressure_sealevel;temperature;humidity
21236;BME280;10775;42.678;26.324;2023-06-19T00:01:46;98296.03;;;22.41;77.45
21236;BME280;10775;42.678;26.324;2023-06-19T00:04:12;98280.81;;;23.48;73.03
21236;BME280;10775;42.678;26.324;2023-06-19T00:06:37;98294.72;;;23.17;74.07
21236;BME280;10775;42.678;26.324;2023-06-19T00:09:03;98288.06;;;22.76;75.38
21236;BME280;10775;42.678;26.324;2023-06-19T00:11:28;98276.88;;;22.60;76.63
21236;BME280;10775;42.678;26.324;2023-06-19T00:13:54;98266.91;;;22.51;77.23
21236;BME280;10775;42.678;26.324;2023-06-19T00:16:20;98285.88;;;23.28;73.70
21236;BME280;10775;42.678;26.324;2023-06-19T00:18:46;98265.09;;;22.98;73.98
21236;BME280;10775;42.678;26.324;2023-06-19T00:21:11;98250.22;;;23.18;73.74
21236;BME280;10775;42.678;26.324;2023-06-19T00:23:37;98269.00;;;22.70;75.53
21236;BME280;10775;42.678;26.324;2023-06-19T00:26:03;98275.94;;;23.19;74.16
21236;BME280;10775;42.678;26.324;2023-06-19T00:28:29;98269.13;;;23.04;74.34
21236;BME280;10775;42.678;26.324;2023-06-19T00:30:55;98268.78;;;23.53;72.29
21236;BME280;10775;42.678;26.324;2023-06-19T00:33:20;98288.22;;;22.86;74.49
21236;BME280;10775;42.678;26.324;2023-06-19T00:35:47;98289.47;;;22.69;76.30
21236;BME280;10775;42.678;26.324;2023-06-19T00:38:13;98282.13;;;22.73;76.19
21236;BME280;10775;42.678;26.324;2023-06-19T00:40:39;98288.03;;;22.41;77.21
21236;BME280;10775;42.678;26.324;2023-06-19T00:43:06;98272.88;;;22.66;76.04
21236;BME280;10775;42.678;26.324;2023-06-19T00:45:31;98293.78;;;22.83;75.64
21236;BME280;10775;42.678;26.324;2023-06-19T00:47:58;98286.22;;;23.01;74.97
21236;BME280;10775;42.678;26.324;2023-06-19T00:50:24;98284.31;;;22.79;75.87
21236;BME280;10775;42.678;26.324;2023-06-19T00:52:50;98282.56;;;23.02;74.44
21236;BME280;10775;42.678;26.324;2023-06-19T00:55:17;98289.00;;;22.99;74.96
21236;BME280;10775;42.678;26.324;2023-06-19T00:57:43;98293.28;;;22.89;74.89
21236;BME280;10775;42.678;26.324;2023-06-19T01:00:09;98283.56;;;22.77;75.75
21236;BME280;10775;42.678;26.324;2023-06-19T01:02:37;98277.56;;;22.86;75.15
21236;BME280;10775;42.678;26.324;2023-06-19T01:05:03;98289.56;;;22.56;76.35
21236;BME280;10775;42.678;26.324;2023-06-19T01:10:02;98292.31;;;22.79;74.67
21236;BME280;10775;42.678;26.324;2023-06-19T01:12:40;98295.25;;;22.28;76.80
21236;BME280;10775;42.678;26.324;2023-06-19T01:15:10;98301.09;;;22.33;76.60
21236;BME280;10775;42.678;26.324;2023-06-19T01:17:36;98300.28;;;22.20;77.70
21236;BME280;10775;42.678;26.324;2023-06-19T01:20:03;98280.13;;;22.15;77.30
21236;BME280;10775;42.678;26.324;2023-06-19T01:22:36;98282.78;;;22.28;76.92
21236;BME280;10775;42.678;26.324;2023-06-19T01:25:01;98296.38;;;22.36;76.07
21236;BME280;10775;42.678;26.324;2023-06-19T01:27:27;98292.78;;;22.73;74.25
21236;BME280;10775;42.678;26.324;2023-06-19T01:30:00;98296.72;;;22.67;75.00
21236;BME280;10775;42.678;26.324;2023-06-19T01:32:31;98292.56;;;22.52;75.23
21236;BME280;10775;42.678;26.324;2023-06-19T01:35:00;98289.66;;;22.90;73.68
21236;BME280;10775;42.678;26.324;2023-06-19T01:37:28;98296.22;;;22.27;76.03
21236;BME280;10775;42.678;26.324;2023-06-19T01:39:55;98305.44;;;22.58;76.33
21236;BME280;10775;42.678;26.324;2023-06-19T01:42:22;98285.66;;;22.49;75.06
21236;BME280;10775;42.678;26.324;2023-06-19T01:44:49;98307.66;;;22.40;76.02
21236;BME280;10775;42.678;26.324;2023-06-19T01:47:15;98298.69;;;22.41;75.84
21236;BME280;10775;42.678;26.324;2023-06-19T01:49:47;98306.50;;;22.55;75.50
21236;BME280;10775;42.678;26.324;2023-06-19T01:52:13;98283.97;;;22.48;76.51
21236;BME280;10775;42.678;26.324;2023-06-19T01:54:39;98304.06;;;22.28;76.13
21236;BME280;10775;42.678;26.324;2023-06-19T01:57:05;98310.63;;;22.24;76.32
21236;BME280;10775;42.678;26.324;2023-06-19T01:59:30;98297.16;;;22.85;75.04
21236;BME280;10775;42.678;26.324;2023-06-19T02:01:56;98317.66;;;22.36;75.56
21236;BME280;10775;42.678;26.324;2023-06-19T02:04:21;98323.75;;;22.02;77.19
21236;BME280;10775;42.678;26.324;2023-06-19T02:06:47;98311.75;;;21.96;77.54
21236;BME280;10775;42.678;26.324;2023-06-19T02:09:12;98308.91;;;22.10;77.57
21236;BME280;10775;42.678;26.324;2023-06-19T02:11:38;98308.63;;;22.74;74.90
21236;BME280;10775;42.678;26.324;2023-06-19T02:14:03;98326.69;;;22.23;76.88
21236;BME280;10775;42.678;26.324;2023-06-19T02:16:29;98319.25;;;22.63;75.81
21236;BME280;10775;42.678;26.324;2023-06-19T02:18:54;98321.03;;;22.14;77.67
21236;BME280;10775;42.678;26.324;2023-06-19T02:21:21;98321.41;;;22.58;75.63
21236;BME280;10775;42.678;26.324;2023-06-19T02:23:47;98320.81;;;22.18;77.64
21236;BME280;10775;42.678;26.324;2023-06-19T02:26:12;98324.06;;;22.34;77.07
21236;BME280;10775;42.678;26.324;2023-06-19T02:28:38;98310.72;;;22.23;77.88
21236;BME280;10775;42.678;26.324;2023-06-19T02:31:04;98328.34;;;21.87;79.29
21236;BME280;10775;42.678;26.324;2023-06-19T02:33:30;98337.44;;;22.21;77.86
21236;BME280;10775;42.678;26.324;2023-06-19T02:35:55;98337.75;;;22.29;77.82
21236;BME280;10775;42.678;26.324;2023-06-19T02:38:25;98336.94;;;22.03;79.60
21236;BME280;10775;42.678;26.324;2023-06-19T02:40:50;98345.56;;;22.20;78.49
21236;BME280;10775;42.678;26.324;2023-06-19T02:43:15;98347.47;;;22.42;77.51
21236;BME280;10775;42.678;26.324;2023-06-19T02:45:41;98346.38;;;21.83;80.33
21236;BME280;10775;42.678;26.324;2023-06-19T02:48:07;98356.66;;;22.38;77.88
21236;BME280;10775;42.678;26.324;2023-06-19T02:50:32;98362.41;;;21.95;79.84
21236;BME280;10775;42.678;26.324;2023-06-19T02:52:58;98361.88;;;21.89;80.34
21236;BME280;10775;42.678;26.324;2023-06-19T02:55:23;98350.16;;;21.92;80.25
21236;BME280;10775;42.678;26.324;2023-06-19T02:57:49;98358.91;;;21.94;80.31
21236;BME280;10775;42.678;26.324;2023-06-19T03:00:14;98364.66;;;22.38;78.49
21236;BME280;10775;42.678;26.324;2023-06-19T03:02:40;98362.69;;;22.03;80.05
21236;BME280;10775;42.678;26.324;2023-06-19T03:05:09;98370.34;;;22.07;79.39
21236;BME280;10775;42.678;26.324;2023-06-19T03:07:34;98368.56;;;21.95;79.93
21236;BME280;10775;42.678;26.324;2023-06-19T03:10:00;98371.09;;;22.09;78.96
21236;BME280;10775;42.678;26.324;2023-06-19T03:12:25;98361.03;;;21.89;79.79
21236;BME280;10775;42.678;26.324;2023-06-19T03:14:51;98365.03;;;22.07;78.71
21236;BME280;10775;42.678;26.324;2023-06-19T03:17:16;98367.53;;;21.85;80.15
21236;BME280;10775;42.678;26.324;2023-06-19T03:19:42;98366.94;;;22.05;79.25
21236;BME280;10775;42.678;26.324;2023-06-19T03:22:07;98358.91;;;21.81;80.67
21236;BME280;10775;42.678;26.324;2023-06-19T03:24:32;98371.03;;;21.85;80.31
21236;BME280;10775;42.678;26.324;2023-06-19T03:26:58;98353.81;;;22.52;77.18
21236;BME280;10775;42.678;26.324;2023-06-19T03:29:23;98370.31;;;22.81;75.24
21236;BME280;10775;42.678;26.324;2023-06-19T03:31:49;98370.34;;;22.07;78.81
21236;BME280;10775;42.678;26.324;2023-06-19T03:34:15;98369.41;;;21.96;79.71
21236;BME280;10775;42.678;26.324;2023-06-19T03:36:41;98375.59;;;22.09;79.43
21236;BME280;10775;42.678;26.324;2023-06-19T03:39:06;98381.25;;;22.41;77.78
21236;BME280;10775;42.678;26.324;2023-06-19T03:41:31;98387.31;;;22.91;75.22
21236;BME280;10775;42.678;26.324;2023-06-19T03:43:57;98384.59;;;22.32;78.15
21236;BME280;10775;42.678;26.324;2023-06-19T03:46:22;98393.56;;;22.05;79.53
21236;BME280;10775;42.678;26.324;2023-06-19T03:48:48;98389.59;;;22.24;78.30
21236;BME280;10775;42.678;26.324;2023-06-19T03:51:13;98394.28;;;22.33;78.13
21236;BME280;10775;42.678;26.324;2023-06-19T03:53:39;98398.44;;;22.37;77.75
21236;BME280;10775;42.678;26.324;2023-06-19T03:56:04;98408.03;;;22.27;78.82
21236;BME280;10775;42.678;26.324;2023-06-19T03:58:30;98408.69;;;22.78;76.26
21236;BME280;10775;42.678;26.324;2023-06-19T04:00:55;98420.72;;;21.85;80.97
21236;BME280;10775;42.678;26.324;2023-06-19T04:03:20;98419.38;;;21.66;82.18
21236;BME280;10775;42.678;26.324;2023-06-19T04:05:46;98409.44;;;21.94;80.76
21236;BME280;10775;42.678;26.324;2023-06-19T04:08:11;98422.97;;;21.91;81.23
21236;BME280;10775;42.678;26.324;2023-06-19T04:10:37;98428.72;;;21.85;81.02
21236;BME280;10775;42.678;26.324;2023-06-19T04:13:03;98409.44;;;22.20;78.85
21236;BME280;10775;42.678;26.324;2023-06-19T04:15:28;98417.00;;;21.62;82.52
21236;BME280;10775;42.678;26.324;2023-06-19T04:17:54;98407.22;;;21.88;81.64
21236;BME280;10775;42.678;26.324;2023-06-19T04:20:19;98412.97;;;21.56;82.43
21236;BME280;10775;42.678;26.324;2023-06-19T04:22:45;98421.28;;;21.52;82.43
21236;BME280;10775;42.678;26.324;2023-06-19T04:25:10;98419.81;;;21.60;82.50
21236;BME280;10775;42.678;26.324;2023-06-19T04:27:36;98415.47;;;22.34;78.98
21236;BME280;10775;42.678;26.324;2023-06-19T04:30:03;98418.84;;;22.36;78.15
21236;BME280;10775;42.678;26.324;2023-06-19T04:32:29;98410.31;;;21.82;80.67
21236;BME280;10775;42.678;26.324;2023-06-19T04:34:55;98415.34;;;22.36;77.69
21236;BME280;10775;42.678;26.324;2023-06-19T04:37:20;98411.47;;;21.90;80.56
21236;BME280;10775;42.678;26.324;2023-06-19T04:39:46;98437.59;;;22.48;77.61
21236;BME280;10775;42.678;26.324;2023-06-19T04:42:16;98423.97;;;22.40;77.49
21236;BME280;10775;42.678;26.324;2023-06-19T04:44:48;98412.25;;;22.66;76.51
21236;BME280;10775;42.678;26.324;2023-06-19T04:47:16;98430.03;;;22.42;77.19
21236;BME280;10775;42.678;26.324;2023-06-19T04:49:41;98437.88;;;22.19;78.66
21236;BME280;10775;42.678;26.324;2023-06-19T04:52:07;98425.19;;;22.84;75.29
21236;BME280;10775;42.678;26.324;2023-06-19T04:54:32;98418.31;;;22.92;74.79
21236;BME280;10775;42.678;26.324;2023-06-19T04:56:58;98431.38;;;23.43;72.35
21236;BME280;10775;42.678;26.324;2023-06-19T04:59:24;98432.00;;;22.27;77.97
21236;BME280;10775;42.678;26.324;2023-06-19T05:01:49;98430.59;;;22.08;78.72
21236;BME280;10775;42.678;26.324;2023-06-19T05:04:19;98436.28;;;22.04;79.72
21236;BME280;10775;42.678;26.324;2023-06-19T05:06:44;98432.28;;;22.35;77.91
21236;BME280;10775;42.678;26.324;2023-06-19T05:09:10;98439.13;;;22.87;75.43
21236;BME280;10775;42.678;26.324;2023-06-19T05:11:36;98436.31;;;22.41;77.09
21236;BME280;10775;42.678;26.324;2023-06-19T05:14:02;98442.91;;;23.09;74.67
21236;BME280;10775;42.678;26.324;2023-06-19T05:16:27;98440.72;;;22.29;76.57
21236;BME280;10775;42.678;26.324;2023-06-19T05:18:53;98435.66;;;22.50;76.46
21236;BME280;10775;42.678;26.324;2023-06-19T05:21:18;98440.03;;;22.75;75.20
21236;BME280;10775;42.678;26.324;2023-06-19T05:23:44;98425.66;;;22.41;76.78
21236;BME280;10775;42.678;26.324;2023-06-19T05:26:12;98441.09;;;22.72;75.66
21236;BME280;10775;42.678;26.324;2023-06-19T05:28:38;98441.22;;;22.71;75.55
21236;BME280;10775;42.678;26.324;2023-06-19T05:31:04;98446.97;;;22.41;76.45
21236;BME280;10775;42.678;26.324;2023-06-19T05:33:30;98435.53;;;22.51;76.72
21236;BME280;10775;42.678;26.324;2023-06-19T05:35:55;98442.50;;;22.78;75.04
21236;BME280;10775;42.678;26.324;2023-06-19T05:38:21;98437.69;;;23.07;73.84
21236;BME280;10775;42.678;26.324;2023-06-19T05:40:49;98439.03;;;22.52;75.74
21236;BME280;10775;42.678;26.324;2023-06-19T05:43:15;98444.13;;;22.68;75.36
21236;BME280;10775;42.678;26.324;2023-06-19T05:45:40;98442.25;;;22.44;77.36
21236;BME280;10775;42.678;26.324;2023-06-19T05:48:06;98443.25;;;23.04;75.40
21236;BME280;10775;42.678;26.324;2023-06-19T05:50:31;98448.22;;;23.44;73.16
21236;BME280;10775;42.678;26.324;2023-06-19T05:52:57;98447.59;;;23.05;74.41
21236;BME280;10775;42.678;26.324;2023-06-19T05:55:22;98447.44;;;22.83;75.35
21236;BME280;10775;42.678;26.324;2023-06-19T05:57:50;98464.25;;;23.20;74.43
21236;BME280;10775;42.678;26.324;2023-06-19T06:00:16;98464.59;;;23.15;73.44
21236;BME280;10775;42.678;26.324;2023-06-19T06:02:42;98462.69;;;23.53;73.01
21236;BME280;10775;42.678;26.324;2023-06-19T06:05:08;98459.84;;;23.90;71.31
21236;BME280;10775;42.678;26.324;2023-06-19T06:07:34;98451.84;;;23.90;72.83
21236;BME280;10775;42.678;26.324;2023-06-19T06:10:00;98462.16;;;22.88;76.56
21236;BME280;10775;42.678;26.324;2023-06-19T06:12:25;98457.53;;;23.38;75.35
21236;BME280;10775;42.678;26.324;2023-06-19T06:14:50;98465.09;;;23.44;72.95
21236;BME280;10775;42.678;26.324;2023-06-19T06:17:16;98469.50;;;23.68;72.81
21236;BME280;10775;42.678;26.324;2023-06-19T06:19:41;98463.09;;;23.24;74.00
21236;BME280;10775;42.678;26.324;2023-06-19T06:22:07;98473.41;;;23.05;75.04
21236;BME280;10775;42.678;26.324;2023-06-19T06:24:32;98483.44;;;23.72;73.67
21236;BME280;10775;42.678;26.324;2023-06-19T06:26:58;98484.03;;;23.53;73.71
21236;BME280;10775;42.678;26.324;2023-06-19T06:29:24;98495.19;;;24.04;72.29
21236;BME280;10775;42.678;26.324;2023-06-19T06:31:50;98491.91;;;25.23;67.13
21236;BME280;10775;42.678;26.324;2023-06-19T06:34:18;98497.56;;;25.83;64.27
21236;BME280;10775;42.678;26.324;2023-06-19T06:36:45;98511.34;;;25.57;66.03
21236;BME280;10775;42.678;26.324;2023-06-19T06:39:10;98491.31;;;26.24;62.27
21236;BME280;10775;42.678;26.324;2023-06-19T06:41:36;98488.81;;;26.54;62.42
21236;BME280;10775;42.678;26.324;2023-06-19T06:44:02;98496.91;;;26.42;61.34
21236;BME280;10775;42.678;26.324;2023-06-19T06:46:27;98493.06;;;26.66;62.37
21236;BME280;10775;42.678;26.324;2023-06-19T06:48:53;98497.91;;;26.82;61.47
21236;BME280;10775;42.678;26.324;2023-06-19T06:51:18;98496.78;;;26.84;64.30
21236;BME280;10775;42.678;26.324;2023-06-19T06:53:44;98510.72;;;25.33;64.46
21236;BME280;10775;42.678;26.324;2023-06-19T06:56:10;98494.13;;;24.52;68.19
21236;BME280;10775;42.678;26.324;2023-06-19T06:58:35;98501.66;;;24.47;67.74
21236;BME280;10775;42.678;26.324;2023-06-19T07:01:01;98504.25;;;25.03;68.70
21236;BME280;10775;42.678;26.324;2023-06-19T07:03:27;98508.00;;;25.01;66.66
21236;BME280;10775;42.678;26.324;2023-06-19T07:05:55;98512.88;;;24.95;69.08
21236;BME280;10775;42.678;26.324;2023-06-19T07:08:21;98499.19;;;24.66;66.70
21236;BME280;10775;42.678;26.324;2023-06-19T07:10:46;98515.13;;;25.23;65.56
21236;BME280;10775;42.678;26.324;2023-06-19T07:13:11;98513.13;;;26.72;61.48
21236;BME280;10775;42.678;26.324;2023-06-19T07:15:37;98531.34;;;25.42;64.26
21236;BME280;10775;42.678;26.324;2023-06-19T07:18:02;98527.28;;;25.15;67.59
21236;BME280;10775;42.678;26.324;2023-06-19T07:20:28;98533.69;;;24.81;66.13
21236;BME280;10775;42.678;26.324;2023-06-19T07:22:54;98532.97;;;24.56;66.39
21236;BME280;10775;42.678;26.324;2023-06-19T07:25:19;98527.72;;;24.77;69.46
21236;BME280;10775;42.678;26.324;2023-06-19T07:27:45;98529.06;;;24.71;67.44
21236;BME280;10775;42.678;26.324;2023-06-19T07:30:11;98529.28;;;24.80;65.38
21236;BME280;10775;42.678;26.324;2023-06-19T07:32:37;98541.56;;;24.15;68.70
21236;BME280;10775;42.678;26.324;2023-06-19T07:35:03;98536.63;;;24.78;68.42
21236;BME280;10775;42.678;26.324;2023-06-19T07:37:29;98540.59;;;24.38;68.82
21236;BME280;10775;42.678;26.324;2023-06-19T07:39:54;98536.59;;;24.33;72.90
21236;BME280;10775;42.678;26.324;2023-06-19T07:42:21;98537.69;;;24.19;69.17
21236;BME280;10775;42.678;26.324;2023-06-19T07:44:47;98551.25;;;23.69;69.37
21236;BME280;10775;42.678;26.324;2023-06-19T07:47:13;98545.47;;;23.51;71.06
21236;BME280;10775;42.678;26.324;2023-06-19T07:49:39;98549.41;;;24.05;68.94
21236;BME280;10775;42.678;26.324;2023-06-19T07:52:05;98550.75;;;23.64;69.76
21236;BME280;10775;42.678;26.324;2023-06-19T07:54:31;98557.28;;;23.84;69.04
21236;BME280;10775;42.678;26.324;2023-06-19T07:56:56;98566.00;;;23.27;71.01
21236;BME280;10775;42.678;26.324;2023-06-19T07:59:22;98561.72;;;23.72;69.87
21236;BME280;10775;42.678;26.324;2023-06-19T08:01:48;98563.31;;;24.44;71.74
21236;BME280;10775;42.678;26.324;2023-06-19T08:04:13;98566.09;;;24.20;70.85
21236;BME280;10775;42.678;26.324;2023-06-19T08:06:39;98566.16;;;23.72;70.01
21236;BME280;10775;42.678;26.324;2023-06-19T08:09:04;98554.50;;;24.55;73.15
21236;BME280;10775;42.678;26.324;2023-06-19T08:11:30;98560.66;;;24.89;69.87
21236;BME280;10775;42.678;26.324;2023-06-19T08:13:55;98563.78;;;24.38;67.84
21236;BME280;10775;42.678;26.324;2023-06-19T08:16:21;98566.75;;;24.46;66.79
21236;BME280;10775;42.678;26.324;2023-06-19T08:18:47;98571.66;;;25.07;71.47
21236;BME280;10775;42.678;26.324;2023-06-19T08:21:13;98570.03;;;24.61;66.24
21236;BME280;10775;42.678;26.324;2023-06-19T08:23:39;98573.88;;;24.34;76.23
21236;BME280;10775;42.678;26.324;2023-06-19T08:26:05;98572.53;;;24.85;65.48
21236;BME280;10775;42.678;26.324;2023-06-19T08:28:33;98580.28;;;23.50;68.73
21236;BME280;10775;42.678;26.324;2023-06-19T08:30:59;98585.59;;;24.09;74.57
21236;BME280;10775;42.678;26.324;2023-06-19T08:33:24;98585.03;;;23.81;69.22
21236;BME280;10775;42.678;26.324;2023-06-19T08:35:50;98586.72;;;24.18;75.37
21236;BME280;10775;42.678;26.324;2023-06-19T08:38:15;98583.38;;;23.92;73.47
21236;BME280;10775;42.678;26.324;2023-06-19T08:40:44;98579.16;;;23.65;70.98
21236;BME280;10775;42.678;26.324;2023-06-19T08:43:10;98583.88;;;24.66;73.85
21236;BME280;10775;42.678;26.324;2023-06-19T08:45:35;98579.44;;;25.10;70.47
21236;BME280;10775;42.678;26.324;2023-06-19T08:48:01;98582.53;;;24.71;71.90
21236;BME280;10775;42.678;26.324;2023-06-19T08:50:32;98583.47;;;25.04;71.36
21236;BME280;10775;42.678;26.324;2023-06-19T08:52:58;98579.63;;;24.52;67.11
21236;BME280;10775;42.678;26.324;2023-06-19T08:55:24;98577.97;;;24.16;74.08
21236;BME280;10775;42.678;26.324;2023-06-19T08:57:51;98582.53;;;24.71;72.46
21236;BME280;10775;42.678;26.324;2023-06-19T09:00:25;98584.09;;;25.19;68.91
21236;BME280;10775;42.678;26.324;2023-06-19T09:02:52;98577.22;;;25.70;68.98
21236;BME280;10775;42.678;26.324;2023-06-19T09:05:19;98584.13;;;26.05;64.71
21236;BME280;10775;42.678;26.324;2023-06-19T09:07:54;98585.22;;;24.83;66.45
21236;BME280;10775;42.678;26.324;2023-06-19T09:10:20;98583.41;;;25.38;69.76
21236;BME280;10775;42.678;26.324;2023-06-19T09:13:04;98579.84;;;25.49;69.06
21236;BME280;10775;42.678;26.324;2023-06-19T09:15:35;98578.22;;;25.90;64.66
21236;BME280;10775;42.678;26.324;2023-06-19T09:18:09;98566.28;;;26.15;65.87
21236;BME280;10775;42.678;26.324;2023-06-19T09:20:38;98570.53;;;26.38;63.74
21236;BME280;10775;42.678;26.324;2023-06-19T09:23:13;98570.22;;;26.62;64.50
21236;BME280;10775;42.678;26.324;2023-06-19T09:31:11;98561.28;;;26.83;63.40
21236;BME280;10775;42.678;26.324;2023-06-19T09:33:39;98557.72;;;26.73;63.54
21236;BME280;10775;42.678;26.324;2023-06-19T09:36:05;98552.22;;;26.74;61.82
21236;BME280;10775;42.678;26.324;2023-06-19T09:38:33;98553.34;;;26.81;61.19
21236;BME280;10775;42.678;26.324;2023-06-19T09:41:03;98553.69;;;26.57;60.16
21236;BME280;10775;42.678;26.324;2023-06-19T09:43:40;98550.81;;;26.80;62.31
21236;BME280;10775;42.678;26.324;2023-06-19T09:46:07;98545.94;;;27.14;62.20
21236;BME280;10775;42.678;26.324;2023-06-19T09:48:34;98542.88;;;27.19;61.84
21236;BME280;10775;42.678;26.324;2023-06-19T09:51:21;98540.66;;;27.34;60.97
21236;BME280;10775;42.678;26.324;2023-06-19T09:53:49;98538.25;;;27.30;60.59
21236;BME280;10775;42.678;26.324;2023-06-19T09:56:17;98528.34;;;27.50;58.98
21236;BME280;10775;42.678;26.324;2023-06-19T09:58:48;98526.38;;;26.42;59.94
21236;BME280;10775;42.678;26.324;2023-06-19T10:01:15;98535.94;;;26.35;62.40
21236;BME280;10775;42.678;26.324;2023-06-19T10:03:44;98520.97;;;26.54;65.32
21236;BME280;10775;42.678;26.324;2023-06-19T10:06:14;98514.13;;;26.80;64.63
21236;BME280;10775;42.678;26.324;2023-06-19T10:08:42;98513.69;;;27.25;63.58
21236;BME280;10775;42.678;26.324;2023-06-19T10:11:09;98510.44;;;27.51;64.49
21236;BME280;10775;42.678;26.324;2023-06-19T10:13:37;98513.47;;;27.07;59.10
21236;BME280;10775;42.678;26.324;2023-06-19T10:16:04;98512.69;;;27.85;58.70
21236;BME280;10775;42.678;26.324;2023-06-19T10:18:31;98511.13;;;27.43;59.41
21236;BME280;10775;42.678;26.324;2023-06-19T10:20:57;98508.41;;;27.63;59.18
21236;BME280;10775;42.678;26.324;2023-06-19T10:23:26;98504.84;;;26.94;62.76
21236;BME280;10775;42.678;26.324;2023-06-19T10:28:23;98508.75;;;26.80;60.62
21236;BME280;10775;42.678;26.324;2023-06-19T10:30:52;98503.44;;;27.00;58.88
21236;BME280;10775;42.678;26.324;2023-06-19T10:33:19;98494.94;;;26.75;58.33
21236;BME280;10775;42.678;26.324;2023-06-19T10:35:45;98499.44;;;26.75;57.83
21236;BME280;10775;42.678;26.324;2023-06-19T10:38:10;98495.66;;;26.87;61.28
21236;BME280;10775;42.678;26.324;2023-06-19T10:40:39;98489.34;;;27.07;66.05
21236;BME280;10775;42.678;26.324;2023-06-19T10:43:04;98477.06;;;27.63;64.00
21236;BME280;10775;42.678;26.324;2023-06-19T10:45:30;98474.13;;;28.13;61.65
21236;BME280;10775;42.678;26.324;2023-06-19T10:47:56;98465.34;;;27.45;62.74
21236;BME280;10775;42.678;26.324;2023-06-19T10:50:22;98469.75;;;27.26;58.55
21236;BME280;10775;42.678;26.324;2023-06-19T10:52:48;98459.97;;;27.16;55.90
21236;BME280;10775;42.678;26.324;2023-06-19T10:55:17;98468.69;;;26.88;56.25
21236;BME280;10775;42.678;26.324;2023-06-19T10:57:47;98468.97;;;26.85;56.95
21236;BME280;10775;42.678;26.324;2023-06-19T11:00:33;98453.22;;;27.21;57.17
21236;BME280;10775;42.678;26.324;2023-06-19T11:02:59;98470.22;;;26.81;57.68
21236;BME280;10775;42.678;26.324;2023-06-19T11:05:26;98463.13;;;26.61;59.12
21236;BME280;10775;42.678;26.324;2023-06-19T11:07:59;98463.56;;;26.56;63.03
21236;BME280;10775;42.678;26.324;2023-06-19T11:10:27;98460.69;;;26.17;58.22
21236;BME280;10775;42.678;26.324;2023-06-19T11:12:55;98455.09;;;26.20;58.20
21236;BME280;10775;42.678;26.324;2023-06-19T11:15:30;98454.03;;;27.12;57.29
21236;BME280;10775;42.678;26.324;2023-06-19T11:17:57;98450.84;;;27.18;55.14
21236;BME280;10775;42.678;26.324;2023-06-19T11:20:23;98443.81;;;27.84;56.51
21236;BME280;10775;42.678;26.324;2023-06-19T11:22:57;98440.72;;;27.88;53.49
21236;BME280;10775;42.678;26.324;2023-06-19T11:25:23;98441.31;;;27.14;56.29
21236;BME280;10775;42.678;26.324;2023-06-19T11:27:49;98444.34;;;27.21;59.13
21236;BME280;10775;42.678;26.324;2023-06-19T11:30:17;98443.47;;;27.30;55.69
21236;BME280;10775;42.678;26.324;2023-06-19T11:32:43;98433.31;;;27.34;54.62
21236;BME280;10775;42.678;26.324;2023-06-19T11:35:15;98448.41;;;27.54;54.38
21236;BME280;10775;42.678;26.324;2023-06-19T11:37:42;98450.97;;;28.12;53.12
21236;BME280;10775;42.678;26.324;2023-06-19T11:40:09;98454.47;;;28.23;60.18
21236;BME280;10775;42.678;26.324;2023-06-19T11:42:51;98453.41;;;27.96;62.93
21236;BME280;10775;42.678;26.324;2023-06-19T11:45:16;98444.81;;;27.83;60.89
21236;BME280;10775;42.678;26.324;2023-06-19T11:47:44;98432.50;;;27.80;61.41
21236;BME280;10775;42.678;26.324;2023-06-19T11:50:10;98444.69;;;28.22;53.24
21236;BME280;10775;42.678;26.324;2023-06-19T11:52:36;98435.06;;;28.56;58.17
21236;BME280;10775;42.678;26.324;2023-06-19T11:55:02;98441.88;;;27.66;58.45
21236;BME280;10775;42.678;26.324;2023-06-19T11:57:27;98439.22;;;27.08;67.75
21236;BME280;10775;42.678;26.324;2023-06-19T11:59:53;98445.72;;;27.15;60.40
21236;BME280;10775;42.678;26.324;2023-06-19T12:02:18;98452.53;;;27.39;60.82
21236;BME280;10775;42.678;26.324;2023-06-19T12:04:44;98459.28;;;27.43;54.14
21236;BME280;10775;42.678;26.324;2023-06-19T12:07:09;98446.84;;;27.51;63.05
21236;BME280;10775;42.678;26.324;2023-06-19T12:09:35;98452.66;;;27.47;55.63
21236;BME280;10775;42.678;26.324;2023-06-19T12:12:00;98436.72;;;28.02;56.50
21236;BME280;10775;42.678;26.324;2023-06-19T12:14:26;98436.16;;;27.99;55.08
21236;BME280;10775;42.678;26.324;2023-06-19T12:16:52;98441.00;;;27.75;56.42
21236;BME280;10775;42.678;26.324;2023-06-19T12:19:17;98440.47;;;27.62;60.51
21236;BME280;10775;42.678;26.324;2023-06-19T12:21:43;98444.59;;;28.13;56.70
21236;BME280;10775;42.678;26.324;2023-06-19T12:24:09;98436.06;;;28.28;54.18
21236;BME280;10775;42.678;26.324;2023-06-19T12:26:35;98439.59;;;28.56;52.95
21236;BME280;10775;42.678;26.324;2023-06-19T12:29:04;98435.91;;;28.57;53.84
21236;BME280;10775;42.678;26.324;2023-06-19T12:31:31;98423.06;;;28.23;58.38
21236;BME280;10775;42.678;26.324;2023-06-19T12:33:57;98435.00;;;28.01;54.88
21236;BME280;10775;42.678;26.324;2023-06-19T12:36:22;98429.53;;;27.93;58.64
21236;BME280;10775;42.678;26.324;2023-06-19T12:38:48;98416.81;;;27.95;59.25
21236;BME280;10775;42.678;26.324;2023-06-19T12:41:14;98414.19;;;28.40;57.08
21236;BME280;10775;42.678;26.324;2023-06-19T12:43:40;98405.13;;;28.87;52.82
21236;BME280;10775;42.678;26.324;2023-06-19T12:46:05;98415.97;;;28.22;53.87
21236;BME280;10775;42.678;26.324;2023-06-19T12:48:32;98409.44;;;28.80;56.41
21236;BME280;10775;42.678;26.324;2023-06-19T12:50:58;98402.28;;;27.68;55.13
21236;BME280;10775;42.678;26.324;2023-06-19T12:53:23;98397.19;;;27.85;55.59
21236;BME280;10775;42.678;26.324;2023-06-19T12:55:56;98401.28;;;28.16;56.77
21236;BME280;10775;42.678;26.324;2023-06-19T12:58:22;98394.47;;;28.22;57.41